createdAt,value
2019-03-04T00:00:32.879Z,70.41
2019-03-04T00:01:32.881Z,70.47
2019-03-04T00:02:32.862Z,70.21
2019-03-04T00:03:32.839Z,70.18
2019-03-04T00:04:32.873Z,70.12
2019-03-04T00:05:32.850Z,70.1
2019-03-04T00:06:32.849Z,70.05
2019-03-04T00:07:32.849Z,70.01
2019-03-04T00:08:33.132Z,70.59
2019-03-04T00:09:32.875Z,70.28
2019-03-04T00:10:32.839Z,70.95
2019-03-04T00:11:32.839Z,71.52
2019-03-04T00:12:32.839Z,71.05
2019-03-04T00:13:32.844Z,71.5
2019-03-04T00:14:32.836Z,71.8
2019-03-04T00:15:32.845Z,72.28
2019-03-04T00:16:32.844Z,72.04
2019-03-04T00:17:32.907Z,73.04
2019-03-04T00:18:32.897Z,73.3
2019-03-04T00:19:32.961Z,73.07
2019-03-04T00:20:32.813Z,72.7
2019-03-04T00:21:32.853Z,73.52
2019-03-04T00:22:32.841Z,72.86
2019-03-04T00:23:32.832Z,73.53
2019-03-04T00:24:32.832Z,73.75
2019-03-04T00:25:32.822Z,73.04
2019-03-04T00:26:32.851Z,72.96
2019-03-04T00:27:32.803Z,73.36
2019-03-04T00:28:32.819Z,73.26
2019-03-04T00:29:32.831Z,73.75
2019-03-04T00:30:32.811Z,73.09
2019-03-04T00:31:32.821Z,73.5
2019-03-04T00:32:32.799Z,72.77
2019-03-04T00:33:32.803Z,72.73
2019-03-04T00:34:32.832Z,72.91
2019-03-04T00:35:32.815Z,73.03
2019-03-04T00:36:32.815Z,73.28
2019-03-04T00:37:32.821Z,73.21
2019-03-04T00:38:32.819Z,73.24
2019-03-04T00:39:32.826Z,72.86
2019-03-04T00:40:32.792Z,72.53
2019-03-04T00:41:32.837Z,72.36
2019-03-04T00:42:32.790Z,72.12
2019-03-04T00:43:32.778Z,72.22
2019-03-04T00:44:32.812Z,72.33
2019-03-04T00:45:32.787Z,72.56
2019-03-04T00:46:32.789Z,73.38
2019-03-04T00:47:32.803Z,73.57
2019-03-04T00:48:32.887Z,74.67
2019-03-04T00:49:32.794Z,75.03
2019-03-04T00:50:32.787Z,74.45
2019-03-04T00:51:32.780Z,73.61
2019-03-04T00:52:32.766Z,73.87
2019-03-04T00:53:32.762Z,74.21
2019-03-04T00:54:32.799Z,75.33
2019-03-04T00:55:32.799Z,74.98
2019-03-04T00:56:32.760Z,74.72
2019-03-04T00:57:32.793Z,75.37
2019-03-04T00:58:32.787Z,75.73
2019-03-04T00:59:32.806Z,75.81
2019-03-04T01:00:32.788Z,75.94
2019-03-04T01:01:32.794Z,76.05
2019-03-04T01:02:33.080Z,76
2019-03-04T01:03:32.773Z,75.81
2019-03-04T01:04:32.767Z,75.08
2019-03-04T01:05:32.794Z,75
2019-03-04T01:06:32.756Z,75.98
2019-03-04T01:07:32.764Z,75.77
2019-03-04T01:08:32.767Z,75.28
2019-03-04T01:09:32.761Z,75.17
2019-03-04T01:10:32.752Z,74.59
2019-03-04T01:11:32.750Z,74.54
2019-03-04T01:12:32.800Z,74.62
2019-03-04T01:13:32.736Z,75.11
2019-03-04T01:14:32.771Z,76.15
2019-03-04T01:15:32.759Z,75.22
2019-03-04T01:16:32.790Z,75.2
2019-03-04T01:17:32.769Z,75.62
2019-03-04T01:18:32.763Z,75.87
2019-03-04T01:19:32.731Z,75.71
2019-03-04T01:20:32.750Z,75.52
2019-03-04T01:21:32.748Z,75.36
2019-03-04T01:22:32.750Z,75.49
2019-03-04T01:23:32.847Z,75.62
2019-03-04T01:24:32.852Z,76.32
2019-03-04T01:25:32.848Z,76.46
2019-03-04T01:26:32.772Z,76.04
2019-03-04T01:27:32.734Z,75.83
2019-03-04T01:28:32.731Z,75.72
2019-03-04T01:29:32.756Z,75.98
2019-03-04T01:30:32.814Z,76.06
2019-03-04T01:31:32.762Z,76.09
2019-03-04T01:32:32.737Z,75.8
2019-03-04T01:33:32.756Z,75.83
2019-03-04T01:34:32.735Z,75.5
2019-03-04T01:35:32.734Z,75.18
2019-03-04T01:36:32.756Z,75.57
2019-03-04T01:37:32.748Z,75.09
2019-03-04T01:38:32.749Z,76.05
2019-03-04T01:39:32.752Z,76.68
2019-03-04T01:40:32.729Z,76.1
2019-03-04T01:41:32.733Z,76.68
2019-03-04T01:42:32.734Z,76.54
2019-03-04T01:43:32.741Z,75.97
2019-03-04T01:44:32.801Z,76.07
2019-03-04T01:45:32.734Z,76.29
2019-03-04T01:46:33.071Z,76.46
2019-03-04T01:47:32.729Z,75.83
2019-03-04T01:48:32.706Z,75.65
2019-03-04T01:49:32.734Z,75.43
2019-03-04T01:50:32.745Z,75.56
2019-03-04T01:51:32.707Z,75.17
2019-03-04T01:52:32.699Z,75.19
2019-03-04T01:53:32.700Z,74.16
2019-03-04T01:54:32.700Z,74.5
2019-03-04T01:55:32.715Z,74.43
2019-03-04T01:56:32.682Z,74.13
2019-03-04T01:57:32.688Z,74.01
2019-03-04T01:58:32.720Z,73.76
2019-03-04T01:59:32.682Z,73.83
2019-03-04T02:00:32.709Z,73.67
2019-03-04T02:01:32.692Z,73.59
2019-03-04T02:02:32.701Z,73.69
2019-03-04T02:03:32.691Z,73.24
2019-03-04T02:04:32.698Z,73.46
2019-03-04T02:05:32.773Z,73.63
2019-03-04T02:06:32.692Z,73.18
2019-03-04T02:07:32.997Z,73.36
2019-03-04T02:08:33.615Z,72.65
2019-03-04T02:09:32.677Z,72.77
2019-03-04T02:10:32.689Z,72.59
2019-03-04T02:11:32.689Z,72.5
2019-03-04T02:12:32.690Z,72.47
2019-03-04T02:13:32.683Z,72.46
2019-03-04T02:14:32.681Z,72.28
2019-03-04T02:15:32.687Z,71.96
2019-03-04T02:16:32.701Z,71.38
2019-03-04T02:17:32.832Z,71.44
2019-03-04T02:18:32.683Z,71.54
2019-03-04T02:19:32.658Z,71.35
2019-03-04T02:20:32.671Z,71.31
2019-03-04T02:21:32.664Z,71.3
2019-03-04T02:22:32.648Z,70.6
2019-03-04T02:23:32.689Z,70.53
2019-03-04T02:24:32.723Z,70.4
2019-03-04T02:25:32.654Z,70.7
2019-03-04T02:26:32.718Z,70.68
2019-03-04T02:27:32.674Z,70.73
2019-03-04T02:28:32.663Z,70.23
2019-03-04T02:29:32.651Z,70.03
2019-03-04T02:30:32.647Z,70.14
2019-03-04T02:31:32.651Z,70.34
2019-03-04T02:32:32.687Z,70.1
2019-03-04T02:33:32.635Z,70.34
2019-03-04T02:34:32.650Z,70.84
2019-03-04T02:35:32.662Z,70.81
2019-03-04T02:36:32.656Z,70.44
2019-03-04T02:37:32.699Z,70.44
2019-03-04T02:38:32.802Z,70.1
2019-03-04T02:39:33.023Z,70.56
2019-03-04T02:40:32.700Z,70.97
2019-03-04T02:41:32.636Z,71.34
2019-03-04T02:42:32.660Z,71.4
2019-03-04T02:43:32.632Z,72.13
2019-03-04T02:44:32.635Z,72.76
2019-03-04T02:45:32.669Z,72.59
2019-03-04T02:46:32.626Z,73.01
2019-03-04T02:47:32.671Z,72.81
2019-03-04T02:48:32.656Z,73.67
2019-03-04T02:49:32.620Z,74
2019-03-04T02:50:32.831Z,73.65
2019-03-04T02:51:32.617Z,73.3
2019-03-04T02:52:32.616Z,73.18
2019-03-04T02:53:32.624Z,73.23
2019-03-04T02:54:32.623Z,72.97
2019-03-04T02:55:32.626Z,73.46
2019-03-04T02:56:32.612Z,73.38
2019-03-04T02:57:32.593Z,73.38
2019-03-04T02:58:32.632Z,73.63
2019-03-04T02:59:32.633Z,73.5
2019-03-04T03:00:32.650Z,73.66
2019-03-04T03:01:32.624Z,74.48
2019-03-04T03:02:32.667Z,74.27
2019-03-04T03:03:32.632Z,74.45
2019-03-04T03:04:32.601Z,74.11
2019-03-04T03:05:32.637Z,73.79
2019-03-04T03:06:32.645Z,73.65
2019-03-04T03:07:32.689Z,73.67
2019-03-04T03:08:32.612Z,73.69
2019-03-04T03:09:32.604Z,74.11
2019-03-04T03:10:32.612Z,73.98
2019-03-04T03:11:32.646Z,74.06
2019-03-04T03:12:32.594Z,74.71
2019-03-04T03:13:32.673Z,74.51
2019-03-04T03:14:32.577Z,73.6
2019-03-04T03:15:32.604Z,73.73
2019-03-04T03:16:32.602Z,73.46
2019-03-04T03:17:32.583Z,73.52
2019-03-04T03:18:32.607Z,73.38
2019-03-04T03:19:32.617Z,73.62
2019-03-04T03:20:32.597Z,73.69
2019-03-04T03:21:32.799Z,73.62
2019-03-04T03:22:33.107Z,73.7
2019-03-04T03:23:32.617Z,73.94
2019-03-04T03:24:32.605Z,74.23
2019-03-04T03:25:32.615Z,74.09
2019-03-04T03:26:32.584Z,73.9
2019-03-04T03:27:32.597Z,73.95
2019-03-04T03:28:32.614Z,73.95
2019-03-04T03:29:32.579Z,74.36
2019-03-04T03:30:32.677Z,74.38
2019-03-04T03:31:32.609Z,74.45
2019-03-04T03:32:32.626Z,74.27
2019-03-04T03:33:32.635Z,74.96
2019-03-04T03:34:32.665Z,74.8
2019-03-04T03:35:32.569Z,74.48
2019-03-04T03:36:32.586Z,74.27
2019-03-04T03:37:32.581Z,74
2019-03-04T03:38:32.582Z,74.41
2019-03-04T03:39:32.585Z,74.33
2019-03-04T03:40:32.579Z,74.59
2019-03-04T03:41:32.559Z,74.38
2019-03-04T03:42:32.569Z,74.15
2019-03-04T03:43:32.674Z,74.11
2019-03-04T03:44:32.549Z,74.23
2019-03-04T03:45:32.564Z,74.16
2019-03-04T03:46:32.579Z,74.8
2019-03-04T03:47:32.558Z,74.57
2019-03-04T03:48:32.558Z,74.51
2019-03-04T03:49:32.552Z,74.12
2019-03-04T03:50:32.569Z,73.97
2019-03-04T03:51:32.585Z,74.12
2019-03-04T03:52:32.547Z,73.88
2019-03-04T03:53:32.597Z,73.93
2019-03-04T03:54:32.561Z,74.05
2019-03-04T03:55:32.550Z,74.23
2019-03-04T03:56:32.529Z,74.22
2019-03-04T03:57:32.536Z,74.66
2019-03-04T03:58:32.536Z,74.42
2019-03-04T03:59:32.527Z,74.98
2019-03-04T04:00:32.550Z,74.78
2019-03-04T04:01:32.555Z,74.58
2019-03-04T04:02:32.554Z,74.41
2019-03-04T04:03:32.548Z,74.55
2019-03-04T04:04:32.706Z,74.64
2019-03-04T04:05:32.603Z,75.13
2019-03-04T04:06:32.540Z,74.93
2019-03-04T04:07:32.541Z,74.84
2019-03-04T04:08:32.587Z,74.94
2019-03-04T04:09:32.505Z,74.77
2019-03-04T04:10:32.517Z,74.77
2019-03-04T04:11:32.516Z,74.36
2019-03-04T04:12:32.514Z,74.49
2019-03-04T04:13:32.518Z,74.76
2019-03-04T04:14:32.562Z,74.58
2019-03-04T04:15:32.564Z,75.4
2019-03-04T04:16:32.521Z,75.48
2019-03-04T04:17:32.507Z,75.14
2019-03-04T04:18:32.525Z,75.09
2019-03-04T04:19:32.502Z,75.07
2019-03-04T04:20:32.482Z,74.83
2019-03-04T04:21:32.531Z,74.87
2019-03-04T04:22:32.472Z,75.25
2019-03-04T04:23:32.501Z,74.93
2019-03-04T04:24:32.532Z,75.26
2019-03-04T04:25:32.511Z,75.08
2019-03-04T04:26:32.806Z,74.91
2019-03-04T04:27:32.495Z,75.15
2019-03-04T04:28:32.504Z,75.4
2019-03-04T04:29:32.494Z,75.19
2019-03-04T04:30:32.493Z,74.86
2019-03-04T04:31:32.489Z,74.73
2019-03-04T04:32:32.505Z,74.6
2019-03-04T04:33:32.476Z,75.3
2019-03-04T04:34:32.460Z,76.04
2019-03-04T04:35:32.485Z,75.8
2019-03-04T04:36:32.469Z,75.41
2019-03-04T04:37:32.494Z,75.47
2019-03-04T04:38:32.538Z,76.24
2019-03-04T04:39:32.503Z,75.72
2019-03-04T04:40:32.467Z,74.85
2019-03-04T04:41:32.484Z,75.07
2019-03-04T04:42:32.502Z,75.23
2019-03-04T04:43:32.475Z,75.3
2019-03-04T04:44:32.514Z,75.1
2019-03-04T04:45:32.476Z,74.9
2019-03-04T04:46:32.456Z,74.88
2019-03-04T04:47:32.456Z,74.45
2019-03-04T04:48:32.913Z,74.24
2019-03-04T04:49:32.484Z,74.45
2019-03-04T04:50:32.473Z,74.53
2019-03-04T04:51:32.455Z,74.51
2019-03-04T04:52:32.492Z,74.38
2019-03-04T04:53:32.452Z,74.36
2019-03-04T04:54:32.461Z,74.13
2019-03-04T04:55:32.436Z,74.19
2019-03-04T04:56:32.444Z,73.8
2019-03-04T04:57:32.459Z,73.57
2019-03-04T04:58:32.445Z,73.39
2019-03-04T04:59:32.480Z,73.47
2019-03-04T05:00:32.523Z,73.6
2019-03-04T05:01:32.459Z,73.96
2019-03-04T05:02:32.502Z,74.09
2019-03-04T05:03:32.508Z,73.89
2019-03-04T05:04:32.490Z,73.34
2019-03-04T05:05:32.448Z,73.33
2019-03-04T05:06:32.457Z,73.43
2019-03-04T05:07:32.433Z,73.43
2019-03-04T05:08:32.442Z,73.52
2019-03-04T05:09:32.574Z,74.11
2019-03-04T05:10:32.636Z,74.32
2019-03-04T05:11:32.491Z,74.37
2019-03-04T05:12:32.446Z,73.67
2019-03-04T05:13:32.460Z,74.18
2019-03-04T05:14:32.463Z,73.89
2019-03-04T05:15:32.470Z,73.91
2019-03-04T05:16:32.498Z,74.12
2019-03-04T05:17:32.435Z,74.32
2019-03-04T05:18:32.435Z,74.32
2019-03-04T05:19:32.440Z,74.33
2019-03-04T05:20:32.424Z,73.63
2019-03-04T05:21:32.411Z,73.62
2019-03-04T05:22:32.434Z,73.56
2019-03-04T05:23:32.448Z,73.88
2019-03-04T05:24:32.449Z,74.22
2019-03-04T05:25:32.436Z,73.54
2019-03-04T05:26:32.437Z,73.62
2019-03-04T05:27:32.448Z,73.65
2019-03-04T05:28:32.444Z,72.41
2019-03-04T05:29:32.416Z,72.35
2019-03-04T05:30:32.550Z,72.49
2019-03-04T05:31:32.428Z,72.02
2019-03-04T05:32:32.404Z,72.09
2019-03-04T05:33:32.434Z,71.55
2019-03-04T05:34:32.397Z,71.52
2019-03-04T05:35:32.403Z,71.94
2019-03-04T05:36:32.413Z,71.01
2019-03-04T05:37:32.445Z,71.25
2019-03-04T05:38:32.419Z,71.67
2019-03-04T05:39:32.434Z,72.12
2019-03-04T05:40:32.442Z,72.15
2019-03-04T05:41:32.391Z,71.8
2019-03-04T05:42:32.384Z,72.42
2019-03-04T05:43:32.402Z,72.6
2019-03-04T05:44:32.384Z,73.04
2019-03-04T05:45:32.424Z,72.98
2019-03-04T05:46:32.381Z,72.34
2019-03-04T05:47:32.397Z,72.31
2019-03-04T05:48:32.412Z,72.3
2019-03-04T05:49:32.402Z,71.94
2019-03-04T05:50:32.393Z,72.07
2019-03-04T05:51:32.388Z,72.05
2019-03-04T05:52:32.358Z,71.82
2019-03-04T05:53:32.529Z,71.59
2019-03-04T05:54:33.196Z,71.64
2019-03-04T05:55:32.428Z,71.52
2019-03-04T05:56:32.361Z,71.53
2019-03-04T05:57:32.385Z,71.78
2019-03-04T05:58:32.396Z,71.84
2019-03-04T05:59:33.307Z,71.96
2019-03-04T06:00:32.410Z,72.17
2019-03-04T06:01:32.396Z,72.48
2019-03-04T06:02:32.375Z,72.5
2019-03-04T06:03:32.351Z,72.24
2019-03-04T06:04:32.387Z,72.13
2019-03-04T06:05:32.372Z,71.99
2019-03-04T06:06:32.354Z,72.06
2019-03-04T06:07:32.341Z,72.15
2019-03-04T06:08:32.378Z,72.18
2019-03-04T06:09:32.379Z,72.14
2019-03-04T06:10:32.356Z,72.65
2019-03-04T06:11:32.348Z,72.37
2019-03-04T06:12:32.424Z,72.31
2019-03-04T06:13:32.371Z,72.29
2019-03-04T06:14:32.343Z,72.1
2019-03-04T06:15:32.405Z,72.1
2019-03-04T06:16:32.682Z,72.27
2019-03-04T06:17:32.349Z,72.17
2019-03-04T06:18:32.360Z,71.73
2019-03-04T06:19:32.346Z,72.04
2019-03-04T06:20:32.328Z,71.91
2019-03-04T06:21:32.360Z,72.35
2019-03-04T06:22:32.338Z,72.12
2019-03-04T06:23:32.321Z,72.16
2019-03-04T06:24:32.449Z,72.1
2019-03-04T06:25:32.327Z,72.12
2019-03-04T06:26:32.365Z,71.79
2019-03-04T06:27:32.334Z,71.87
2019-03-04T06:28:32.326Z,71.72
2019-03-04T06:29:32.343Z,71.47
2019-03-04T06:30:32.375Z,71.69
2019-03-04T06:31:32.306Z,72.15
2019-03-04T06:32:32.323Z,72.46
2019-03-04T06:33:32.304Z,72.47
2019-03-04T06:34:32.304Z,72.32
2019-03-04T06:35:32.338Z,72.27
2019-03-04T06:36:32.332Z,71.79
2019-03-04T06:37:32.432Z,72.23
2019-03-04T06:38:32.322Z,72.38
2019-03-04T06:39:32.316Z,72.38
2019-03-04T06:40:32.331Z,72.63
2019-03-04T06:41:32.339Z,72.66
2019-03-04T06:42:32.310Z,72.32
2019-03-04T06:43:32.290Z,70.95
2019-03-04T06:44:32.300Z,71.04
2019-03-04T06:45:32.324Z,70.65
2019-03-04T06:46:32.317Z,70.19
2019-03-04T06:47:32.294Z,68.78
2019-03-04T06:48:32.290Z,69.25
2019-03-04T06:49:32.299Z,68.79
2019-03-04T06:50:32.316Z,68.78
2019-03-04T06:51:32.284Z,68.59
2019-03-04T06:52:32.387Z,68.25
2019-03-04T06:53:32.300Z,68.32
2019-03-04T06:54:32.311Z,67.07
2019-03-04T06:55:32.285Z,66.22
2019-03-04T06:56:32.277Z,66.36
2019-03-04T06:57:32.265Z,65.56
2019-03-04T06:58:32.285Z,66.15
2019-03-04T06:59:32.599Z,65.53
2019-03-04T07:00:32.294Z,65.36
2019-03-04T07:01:32.279Z,65.52
2019-03-04T07:02:32.262Z,65.58
2019-03-04T07:03:33.171Z,66
2019-03-04T07:04:32.263Z,65.02
2019-03-04T07:05:32.279Z,65.41
2019-03-04T07:06:32.258Z,64.29
2019-03-04T07:07:32.258Z,64
2019-03-04T07:08:32.250Z,64.55
2019-03-04T07:09:32.304Z,64.26
2019-03-04T07:10:33.218Z,63.74
2019-03-04T07:11:32.275Z,63.33
2019-03-04T07:12:32.310Z,63.73
2019-03-04T07:13:32.299Z,64.16
2019-03-04T07:14:32.278Z,63.5
2019-03-04T07:15:32.235Z,63.23
2019-03-04T07:16:32.428Z,61.82
2019-03-04T07:17:32.278Z,60.93
2019-03-04T07:18:32.265Z,59.72
2019-03-04T07:19:32.247Z,59.62
2019-03-04T07:20:32.301Z,59.61
2019-03-04T07:21:32.444Z,59.48
2019-03-04T07:22:32.261Z,59.28
2019-03-04T07:23:32.268Z,58.59
2019-03-04T07:24:32.252Z,57.61
2019-03-04T07:25:32.248Z,57.26
2019-03-04T07:26:32.259Z,56.45
2019-03-04T07:27:32.288Z,55.89
2019-03-04T07:28:32.258Z,56.16
2019-03-04T07:29:32.252Z,55.63
2019-03-04T07:30:32.236Z,57.21
2019-03-04T07:31:32.258Z,57.4
2019-03-04T07:32:32.251Z,57.43
2019-03-04T07:33:32.263Z,57.67
2019-03-04T07:34:34.247Z,57.39
2019-03-04T07:35:32.222Z,58.37
2019-03-04T07:36:32.230Z,59.27
2019-03-04T07:37:32.230Z,60.49
2019-03-04T07:38:32.231Z,60.47
2019-03-04T07:39:32.201Z,60.15
2019-03-04T07:40:32.261Z,60.75
2019-03-04T07:41:32.205Z,60.83
2019-03-04T07:42:32.267Z,61.09
2019-03-04T07:43:32.225Z,60.11
2019-03-04T07:44:32.197Z,59.95
2019-03-04T07:45:32.213Z,60.07
2019-03-04T07:46:32.216Z,59.37
2019-03-04T07:47:32.229Z,59.54
2019-03-04T07:48:32.235Z,59.97
2019-03-04T07:49:32.330Z,59.61
2019-03-04T07:50:32.210Z,60.13
2019-03-04T07:51:32.203Z,59.65
2019-03-04T07:52:32.222Z,58.34
2019-03-04T07:53:32.192Z,58.07
2019-03-04T07:54:32.230Z,58.48
2019-03-04T07:55:32.257Z,58.24
2019-03-04T07:56:32.203Z,57.6
2019-03-04T07:57:32.192Z,56.79
2019-03-04T07:58:32.222Z,56.09
2019-03-04T07:59:32.210Z,56.45
2019-03-04T08:00:32.239Z,56.99
2019-03-04T08:01:32.212Z,55.95
2019-03-04T08:02:32.224Z,56.34
2019-03-04T08:03:32.313Z,55.2
2019-03-04T08:04:32.418Z,55.02
2019-03-04T08:05:32.195Z,55.43
2019-03-04T08:06:32.201Z,55.32
2019-03-04T08:07:32.304Z,55.53
2019-03-04T08:08:32.191Z,55.75
2019-03-04T08:09:32.164Z,55.87
2019-03-04T08:10:32.165Z,54.5
2019-03-04T08:11:32.182Z,54.57
2019-03-04T08:12:32.156Z,54.76
2019-03-04T08:13:32.169Z,54.58
2019-03-04T08:14:32.192Z,54.53
2019-03-04T08:15:32.194Z,55.47
2019-03-04T08:16:32.155Z,55.44
2019-03-04T08:17:32.164Z,54.96
2019-03-04T08:18:32.240Z,55.15
2019-03-04T08:19:32.184Z,55.25
2019-03-04T08:20:32.159Z,55.63
2019-03-04T08:21:32.138Z,55.32
2019-03-04T08:22:32.146Z,55.79
2019-03-04T08:23:32.235Z,56.17
2019-03-04T08:24:32.165Z,55.92
2019-03-04T08:25:32.174Z,55.69
2019-03-04T08:26:32.463Z,56.07
2019-03-04T08:27:32.230Z,56.62
2019-03-04T08:28:32.164Z,56.85
2019-03-04T08:29:32.147Z,57.21
2019-03-04T08:30:32.174Z,57.47
2019-03-04T08:31:32.160Z,57.27
2019-03-04T08:32:32.139Z,57.66
2019-03-04T08:33:32.142Z,57.61
2019-03-04T08:34:32.135Z,57.8
2019-03-04T08:35:32.156Z,57.55
2019-03-04T08:36:32.150Z,57.93
2019-03-04T08:37:32.149Z,58.16
2019-03-04T08:38:32.126Z,57.95
2019-03-04T08:39:32.186Z,58
2019-03-04T08:40:32.150Z,58.44
2019-03-04T08:41:32.155Z,58.77
2019-03-04T08:42:32.174Z,58.75
2019-03-04T08:43:32.196Z,58.48
2019-03-04T08:44:32.144Z,58.71
2019-03-04T08:45:32.179Z,58.59
2019-03-04T08:46:32.127Z,58.39
2019-03-04T08:47:32.124Z,58.38
2019-03-04T08:48:32.157Z,58.22
2019-03-04T08:49:32.118Z,58.7
2019-03-04T08:50:32.162Z,58.7
2019-03-04T08:51:32.159Z,58.55
2019-03-04T08:52:32.143Z,58.88
2019-03-04T08:53:32.153Z,59.08
2019-03-04T08:54:32.119Z,58.67
2019-03-04T08:55:32.135Z,58.99
2019-03-04T08:56:32.160Z,59.33
2019-03-04T08:57:32.119Z,59.15
2019-03-04T08:58:34.671Z,59.18
2019-03-04T08:59:32.115Z,58.85
2019-03-04T09:00:32.110Z,59.21
2019-03-04T09:01:32.118Z,59.33
2019-03-04T09:02:32.101Z,59.53
2019-03-04T09:03:32.110Z,59.77
2019-03-04T09:04:32.124Z,60.21
2019-03-04T09:05:32.269Z,60.36
2019-03-04T09:06:32.147Z,60.45
2019-03-04T09:07:32.123Z,60.43
2019-03-04T09:08:32.162Z,60.35
2019-03-04T09:09:32.104Z,60.13
2019-03-04T09:10:32.266Z,60.45
2019-03-04T09:11:32.087Z,60.78
2019-03-04T09:12:32.103Z,60.74
2019-03-04T09:13:32.121Z,60.71
2019-03-04T09:14:32.117Z,60.82
2019-03-04T09:15:32.081Z,60.95
2019-03-04T09:16:32.074Z,60.68
2019-03-04T09:17:32.175Z,60.4
2019-03-04T09:18:32.335Z,60.61
2019-03-04T09:19:32.130Z,60.34
2019-03-04T09:20:32.102Z,60.7
2019-03-04T09:21:32.108Z,60.85
2019-03-04T09:22:32.083Z,60.79
2019-03-04T09:23:32.122Z,60.74
2019-03-04T09:24:32.080Z,60.82
2019-03-04T09:25:32.071Z,60.88
2019-03-04T09:26:32.121Z,61.2
2019-03-04T09:27:32.076Z,60.98
2019-03-04T09:28:32.068Z,61.22
2019-03-04T09:29:32.086Z,61.1
2019-03-04T09:30:32.096Z,61.32
2019-03-04T09:31:32.096Z,61.37
2019-03-04T09:32:32.085Z,60.74
2019-03-04T09:33:32.054Z,60.77
2019-03-04T09:34:32.057Z,60.83
2019-03-04T09:35:32.972Z,60.88
2019-03-04T09:36:32.153Z,60.49
2019-03-04T09:37:32.080Z,60.67
2019-03-04T09:38:32.145Z,60.51
2019-03-04T09:39:32.079Z,60.43
2019-03-04T09:40:32.061Z,60.4
2019-03-04T09:41:32.155Z,60.33
2019-03-04T09:42:32.067Z,60.51
2019-03-04T09:43:32.057Z,60.58
2019-03-04T09:44:32.077Z,60.39
2019-03-04T09:45:39.567Z,60.56
2019-03-04T09:46:32.037Z,60.69
2019-03-04T09:47:32.067Z,60.21
2019-03-04T09:48:32.079Z,60.03
2019-03-04T09:49:32.074Z,60.24
2019-03-04T09:50:32.069Z,60.29
2019-03-04T09:51:32.043Z,60.19
2019-03-04T09:52:32.080Z,60.18
2019-03-04T09:53:39.999Z,59.94
2019-03-04T09:54:32.327Z,60.09
2019-03-04T09:55:32.538Z,60.14
2019-03-04T09:56:32.040Z,60.09
2019-03-04T09:57:32.042Z,59.62
2019-03-04T09:58:32.018Z,59.95
2019-03-04T09:59:32.076Z,59.98
2019-03-04T10:00:32.043Z,59.89
2019-03-04T10:01:32.057Z,59.49
2019-03-04T10:02:32.043Z,59.33
2019-03-04T10:03:32.035Z,58.95
2019-03-04T10:04:32.027Z,58.73
2019-03-04T10:05:32.015Z,58.04
2019-03-04T10:06:32.028Z,57.82
2019-03-04T10:07:32.008Z,57.41
2019-03-04T10:08:33.297Z,56.93
2019-03-04T10:09:31.998Z,57.02
2019-03-04T10:10:32.015Z,56.57
2019-03-04T10:11:32.001Z,55.42
2019-03-04T10:12:32.002Z,55
2019-03-04T10:13:32.018Z,55.42
2019-03-04T10:14:32.004Z,54.83
2019-03-04T10:15:32.030Z,55.06
2019-03-04T10:16:32.059Z,54.99
2019-03-04T10:17:32.023Z,53.91
2019-03-04T10:18:32.023Z,54.49
2019-03-04T10:19:32.089Z,54.67
2019-03-04T10:20:32.019Z,54.87
2019-03-04T10:21:32.012Z,54.55
2019-03-04T10:22:32.011Z,53.73
2019-03-04T10:23:32.006Z,54.42
2019-03-04T10:24:32.011Z,53.73
2019-03-04T10:25:32.062Z,54.74
2019-03-04T10:26:32.011Z,54.4
2019-03-04T10:27:32.006Z,54.12
2019-03-04T10:28:31.973Z,54.15
2019-03-04T10:29:32.208Z,55.1
2019-03-04T10:30:31.977Z,55.56
2019-03-04T10:31:31.999Z,55.77
2019-03-04T10:32:32.014Z,55.35
2019-03-04T10:33:31.998Z,55.41
2019-03-04T10:34:32.257Z,55.2
2019-03-04T10:35:31.969Z,55.38
2019-03-04T10:36:32.113Z,56.61
2019-03-04T10:37:31.973Z,56.85
2019-03-04T10:38:32.157Z,58.82
2019-03-04T10:39:32.067Z,60.68
2019-03-04T10:40:34.681Z,60.93
2019-03-04T10:41:32.018Z,61.5
2019-03-04T10:42:31.951Z,60.82
2019-03-04T10:43:32.010Z,60.21
2019-03-04T10:44:38.216Z,58.84
2019-03-04T10:45:32.008Z,59.5
2019-03-04T10:46:31.967Z,60.69
2019-03-04T10:47:31.982Z,59.95
2019-03-04T10:48:31.964Z,60.19
2019-03-04T10:49:32.038Z,59.53
2019-03-04T10:50:31.949Z,59.35
2019-03-04T10:51:31.974Z,59.75
2019-03-04T10:52:31.990Z,60.34
2019-03-04T10:53:31.961Z,60.34
2019-03-04T10:54:32.108Z,61.03
2019-03-04T10:55:42.606Z,61.4
2019-03-04T10:56:31.967Z,61.31
2019-03-04T10:57:31.957Z,61.05
2019-03-04T10:58:31.968Z,61.3
2019-03-04T10:59:31.955Z,61.19
2019-03-04T11:00:31.953Z,61.38
2019-03-04T11:01:32.316Z,61.87
2019-03-04T11:02:31.938Z,62.13
2019-03-04T11:03:31.935Z,62.31
2019-03-04T11:04:32.003Z,63.02
2019-03-04T11:05:31.980Z,63.63
2019-03-04T11:06:31.923Z,64.46
2019-03-04T11:07:32.022Z,63.85
2019-03-04T11:08:31.940Z,63.83
2019-03-04T11:09:31.968Z,64.45
2019-03-04T11:10:31.954Z,64.14
2019-03-04T11:11:31.925Z,64.72
2019-03-04T11:12:31.945Z,65.23
2019-03-04T11:13:31.952Z,65.47
2019-03-04T11:14:31.988Z,65.85
2019-03-04T11:15:31.958Z,65.22
2019-03-04T11:16:31.954Z,64.93
2019-03-04T11:17:31.951Z,63.56
2019-03-04T11:18:31.968Z,63.74
2019-03-04T11:19:31.914Z,63.89
2019-03-04T11:20:32.001Z,63.88
2019-03-04T11:21:31.934Z,64.5
2019-03-04T11:22:32.459Z,64.63
2019-03-04T11:23:32.520Z,65.13
2019-03-04T11:24:32.035Z,64.9
2019-03-04T11:25:31.936Z,65.55
2019-03-04T11:26:31.922Z,65.15
2019-03-04T11:27:31.981Z,65.41
2019-03-04T11:28:31.921Z,65.13
2019-03-04T11:29:31.918Z,65.34
2019-03-04T11:30:31.947Z,65.45
2019-03-04T11:31:31.913Z,65.67
2019-03-04T11:32:31.905Z,65.5
2019-03-04T11:33:31.911Z,65.76
2019-03-04T11:34:31.919Z,66.05
2019-03-04T11:35:31.932Z,65.56
2019-03-04T11:36:31.955Z,65.62
2019-03-04T11:37:31.971Z,64.94
2019-03-04T11:38:31.909Z,65.11
2019-03-04T11:39:31.919Z,65.03
2019-03-04T11:40:32.033Z,65.36
2019-03-04T11:41:31.919Z,65.36
2019-03-04T11:42:31.932Z,65.37
2019-03-04T11:43:31.952Z,65.43
2019-03-04T11:44:31.982Z,65.51
2019-03-04T11:45:31.974Z,65.76
2019-03-04T11:46:31.954Z,65.7
2019-03-04T11:47:31.911Z,66.04
2019-03-04T11:48:31.900Z,66.88
2019-03-04T11:49:31.916Z,67.49
2019-03-04T11:50:31.982Z,68.83
2019-03-04T11:51:32.014Z,68.64
2019-03-04T11:52:31.901Z,69.5
2019-03-04T11:53:31.889Z,69.41
2019-03-04T11:54:31.980Z,69.95
2019-03-04T11:55:31.895Z,70.87
2019-03-04T11:56:31.884Z,70.79
2019-03-04T11:57:31.919Z,69.42
2019-03-04T11:58:31.948Z,69.02
2019-03-04T11:59:31.865Z,69.13
2019-03-04T12:00:31.891Z,69
2019-03-04T12:01:31.888Z,69.01
2019-03-04T12:02:39.426Z,68.33
2019-03-04T12:03:31.872Z,69.26
2019-03-04T12:04:31.867Z,67.43
2019-03-04T12:05:31.901Z,67.65
2019-03-04T12:06:31.891Z,67.91
2019-03-04T12:07:31.876Z,67.02
2019-03-04T12:08:31.897Z,66.59
2019-03-04T12:09:31.886Z,66.39
2019-03-04T12:10:31.858Z,66.28
2019-03-04T12:11:38.629Z,65.21
2019-03-04T12:12:31.862Z,65.65
2019-03-04T12:13:31.850Z,65.67
2019-03-04T12:14:31.849Z,65.51
2019-03-04T12:15:31.865Z,65.99
2019-03-04T12:16:31.863Z,66.82
2019-03-04T12:17:31.884Z,66.33
2019-03-04T12:18:31.857Z,66.88
2019-03-04T12:19:31.855Z,64.51
2019-03-04T12:20:31.877Z,65.5
2019-03-04T12:21:31.846Z,63.54
2019-03-04T12:22:31.844Z,63.97
2019-03-04T12:23:31.862Z,64.35
2019-03-04T12:24:31.844Z,64.6
2019-03-04T12:25:31.872Z,63.52
2019-03-04T12:26:31.847Z,64.52
2019-03-04T12:27:31.831Z,64.99
2019-03-04T12:28:32.019Z,64.13
2019-03-04T12:29:31.841Z,62.93
2019-03-04T12:30:31.853Z,62.4
2019-03-04T12:31:31.857Z,60.27
2019-03-04T12:32:31.906Z,60.61
2019-03-04T12:33:31.883Z,60.83
2019-03-04T12:34:31.881Z,60.21
2019-03-04T12:35:31.950Z,60.19
2019-03-04T12:36:31.903Z,60.2
2019-03-04T12:37:31.903Z,59.92
2019-03-04T12:38:31.898Z,60.37
2019-03-04T12:39:31.834Z,60.66
2019-03-04T12:40:31.849Z,59.36
2019-03-04T12:41:31.803Z,59.29
2019-03-04T12:42:31.865Z,58.69
2019-03-04T12:43:31.842Z,59.29
2019-03-04T12:44:31.806Z,57.86
2019-03-04T12:45:34.961Z,58.12
2019-03-04T12:46:31.832Z,58.97
2019-03-04T12:47:31.823Z,58.73
2019-03-04T12:48:31.898Z,59.18
2019-03-04T12:49:31.823Z,58.76
2019-03-04T12:50:31.930Z,57.59
2019-03-04T12:51:31.810Z,58.81
2019-03-04T12:52:31.859Z,58.17
2019-03-04T12:53:37.773Z,58.77
2019-03-04T12:54:31.808Z,59.55
2019-03-04T12:55:31.828Z,59.91